createdAt,value
2024-03-07T00:02:03.324Z,85.63
2024-03-07T00:04:31.194Z,85.83
2024-03-07T00:06:59.185Z,85.56
2024-03-07T00:09:27.034Z,85.54
2024-03-07T00:11:56.808Z,85.46
2024-03-07T00:14:27.138Z,85.76
2024-03-07T00:16:57.583Z,85.68
2024-03-07T00:19:27.417Z,85.58
2024-03-07T00:21:55.714Z,85.60
2024-03-07T00:24:24.951Z,85.79
2024-03-07T00:26:53.049Z,85.74
2024-03-07T00:29:21.508Z,85.49
2024-03-07T00:31:50.007Z,85.69
2024-03-07T00:34:24.873Z,85.95
2024-03-07T00:36:49.347Z,85.65
2024-03-07T00:39:18.119Z,85.99
2024-03-07T00:41:46.085Z,86.13
2024-03-07T00:44:14.051Z,86.20
2024-03-07T00:46:41.970Z,85.74
2024-03-07T00:49:10.041Z,86.67
2024-03-07T00:51:39.373Z,86.00
2024-03-07T00:54:07.918Z,86.17
2024-03-07T00:56:37.088Z,85.84
2024-03-07T00:59:05.058Z,85.65
2024-03-07T01:01:34.532Z,85.37
2024-03-07T01:04:03.119Z,85.42
2024-03-07T01:06:31.490Z,85.85
2024-03-07T01:08:59.432Z,85.43
2024-03-07T01:11:27.321Z,85.40
2024-03-07T01:13:56.070Z,85.54
2024-03-07T01:16:24.296Z,85.44
2024-03-07T01:18:52.548Z,85.55
2024-03-07T01:21:20.571Z,85.54
2024-03-07T01:23:49.591Z,85.58
2024-03-07T01:26:18.189Z,85.69
2024-03-07T01:28:46.169Z,85.37
2024-03-07T01:31:14.011Z,85.40
2024-03-07T01:33:41.976Z,85.33
2024-03-07T01:36:10.322Z,85.41
2024-03-07T01:38:38.361Z,85.35
2024-03-07T01:41:06.236Z,85.27
2024-03-07T01:43:34.288Z,85.43
2024-03-07T01:46:02.727Z,85.52
2024-03-07T01:48:32.226Z,85.25
2024-03-07T01:51:00.681Z,85.64
2024-03-07T01:53:30.049Z,85.39
2024-03-07T01:55:59.797Z,85.29
2024-03-07T01:58:28.873Z,85.24
2024-03-07T02:00:57.049Z,85.13
2024-03-07T02:03:24.992Z,85.15
2024-03-07T02:05:53.308Z,85.12
2024-03-07T02:08:21.339Z,85.08
2024-03-07T02:10:50.042Z,84.83
2024-03-07T02:13:18.809Z,84.99
2024-03-07T02:15:46.762Z,85.08
2024-03-07T02:18:15.028Z,85.08
2024-03-07T02:20:46.783Z,84.97
2024-03-07T02:23:15.278Z,84.97
2024-03-07T02:25:43.172Z,84.97
2024-03-07T02:28:11.040Z,85.04
2024-03-07T02:30:38.898Z,85.09
2024-03-07T02:33:10.286Z,84.98
2024-03-07T02:35:38.756Z,85.17
2024-03-07T02:38:06.944Z,85.26
2024-03-07T02:40:35.141Z,85.09
2024-03-07T02:43:04.828Z,84.89
2024-03-07T02:45:32.815Z,85.24
2024-03-07T02:48:00.804Z,85.56
2024-03-07T02:50:28.931Z,85.63
2024-03-07T02:52:56.878Z,85.50
2024-03-07T02:55:24.868Z,85.43
2024-03-07T02:57:53.213Z,85.14
2024-03-07T03:00:21.471Z,85.42
2024-03-07T03:02:50.617Z,85.46
2024-03-07T03:05:19.816Z,85.63
2024-03-07T03:07:49.866Z,86.08
2024-03-07T03:10:18.154Z,86.68
2024-03-07T03:12:46.489Z,86.77
2024-03-07T03:15:15.724Z,86.53
2024-03-07T03:17:43.838Z,86.57
2024-03-07T03:20:14.477Z,86.70
2024-03-07T03:22:44.380Z,86.75
2024-03-07T03:25:13.147Z,86.73
2024-03-07T03:27:41.104Z,86.66
2024-03-07T03:30:12.133Z,86.24
2024-03-07T03:32:41.134Z,86.10
2024-03-07T03:35:11.479Z,86.25
2024-03-07T03:37:41.707Z,86.08
2024-03-07T03:40:10.938Z,85.89
2024-03-07T03:42:40.074Z,85.80
2024-03-07T03:45:12.274Z,84.72
2024-03-07T03:47:40.146Z,84.87
2024-03-07T03:50:10.194Z,85.53
2024-03-07T03:52:38.418Z,85.74
2024-03-07T03:55:07.552Z,85.67
2024-03-07T03:57:35.415Z,86.11
2024-03-07T04:00:08.109Z,85.71
2024-03-07T04:02:37.889Z,85.55
2024-03-07T04:05:06.167Z,85.37
2024-03-07T04:07:34.022Z,84.73
2024-03-07T04:10:03.637Z,84.70
2024-03-07T04:12:31.627Z,84.08
2024-03-07T04:14:59.515Z,83.81
2024-03-07T04:17:27.482Z,83.73
2024-03-07T04:19:55.222Z,83.67
2024-03-07T04:22:23.631Z,83.70
2024-03-07T04:24:53.391Z,83.50
2024-03-07T04:27:22.820Z,83.68
2024-03-07T04:29:50.780Z,83.69
2024-03-07T04:32:19.040Z,83.70
2024-03-07T04:34:46.954Z,83.64
2024-03-07T04:37:15.416Z,83.82
2024-03-07T04:39:42.998Z,83.93
2024-03-07T04:42:10.841Z,83.63
2024-03-07T04:44:39.807Z,83.67
2024-03-07T04:47:07.949Z,83.56
2024-03-07T04:49:36.037Z,83.67
2024-03-07T04:52:05.521Z,83.54
2024-03-07T04:54:34.952Z,83.69
2024-03-07T04:57:03.269Z,83.52
2024-03-07T04:59:31.753Z,83.45
2024-03-07T05:02:00.171Z,83.46
2024-03-07T05:04:29.859Z,83.12
2024-03-07T05:06:59.055Z,83.50
2024-03-07T05:09:28.872Z,83.32
2024-03-07T05:11:58.381Z,83.39
2024-03-07T05:14:26.463Z,83.13
2024-03-07T05:17:06.884Z,83.29
2024-03-07T05:19:36.699Z,83.38
2024-03-07T05:22:07.509Z,83.32
2024-03-07T05:24:37.340Z,83.23
2024-03-07T05:27:05.871Z,82.82
2024-03-07T05:29:33.995Z,82.83
2024-03-07T05:32:23.246Z,82.75
2024-03-07T05:34:51.417Z,82.05
2024-03-07T05:37:21.713Z,82.45
2024-03-07T05:39:50.678Z,82.37
2024-03-07T05:42:18.906Z,82.37
2024-03-07T05:44:48.217Z,82.52
2024-03-07T05:47:17.654Z,82.68
2024-03-07T05:49:45.682Z,82.73
2024-03-07T05:52:13.705Z,82.84
2024-03-07T05:54:41.723Z,83.39
2024-03-07T05:57:09.684Z,83.02
2024-03-07T05:59:37.867Z,83.30
2024-03-07T06:02:05.980Z,83.12
2024-03-07T06:04:34.661Z,83.14
2024-03-07T06:07:02.688Z,82.88
2024-03-07T06:09:30.498Z,83.31
2024-03-07T06:11:58.697Z,83.48
2024-03-07T06:14:27.500Z,83.09
2024-03-07T06:16:55.487Z,83.44
2024-03-07T06:19:25.314Z,83.76
2024-03-07T06:21:54.694Z,83.67
2024-03-07T06:24:23.800Z,83.69
2024-03-07T06:26:54.357Z,83.59
2024-03-07T06:29:23.284Z,83.97
2024-03-07T06:31:51.447Z,83.76
2024-03-07T06:34:19.386Z,83.79
2024-03-07T06:36:47.240Z,83.84
2024-03-07T06:39:15.162Z,83.71
2024-03-07T06:41:43.284Z,83.70
2024-03-07T06:44:11.577Z,83.49
2024-03-07T06:46:39.562Z,83.43
2024-03-07T06:49:09.221Z,83.50
2024-03-07T06:51:37.604Z,83.39
2024-03-07T06:54:06.193Z,83.21
2024-03-07T06:56:34.731Z,83.27
2024-03-07T06:59:06.258Z,83.20
2024-03-07T07:01:34.924Z,83.10
2024-03-07T07:04:04.227Z,83.04
2024-03-07T07:06:32.075Z,82.97
2024-03-07T07:09:01.824Z,82.86
2024-03-07T07:11:32.778Z,82.68
2024-03-07T07:13:59.537Z,82.48
2024-03-07T07:16:27.792Z,82.51
2024-03-07T07:18:56.082Z,82.52
2024-03-07T07:21:24.140Z,82.53
2024-03-07T07:23:52.126Z,80.98
2024-03-07T07:26:20.078Z,81.48
2024-03-07T07:28:51.182Z,81.12
2024-03-07T07:31:19.298Z,80.80
2024-03-07T07:33:47.785Z,81.14
2024-03-07T07:36:15.652Z,80.92
2024-03-07T07:38:43.526Z,78.76
2024-03-07T07:41:11.434Z,78.87
2024-03-07T07:43:43.557Z,78.02
2024-03-07T07:46:11.709Z,75.77
2024-03-07T07:48:39.866Z,75.86
2024-03-07T07:51:10.006Z,76.49
2024-03-07T07:53:39.296Z,74.83
2024-03-07T07:56:09.254Z,74.15
2024-03-07T07:58:37.358Z,74.43
2024-03-07T08:01:05.423Z,74.35
2024-03-07T08:03:33.897Z,74.85
2024-03-07T08:06:02.342Z,75.00
2024-03-07T08:08:30.732Z,74.19
2024-03-07T08:10:59.771Z,74.16
2024-03-07T08:13:28.061Z,71.86
2024-03-07T08:15:55.891Z,71.44
2024-03-07T08:18:24.271Z,71.30
2024-03-07T08:20:55.848Z,72.73
2024-03-07T08:23:23.990Z,71.43
2024-03-07T08:25:52.193Z,71.18
2024-03-07T08:28:20.214Z,72.06
2024-03-07T08:30:48.088Z,69.47
2024-03-07T08:33:16.022Z,69.51
2024-03-07T08:35:44.033Z,69.76
2024-03-07T08:38:12.939Z,68.79
2024-03-07T08:40:40.836Z,67.98
2024-03-07T08:43:09.084Z,67.59
2024-03-07T08:45:37.262Z,67.68
2024-03-07T08:48:07.870Z,66.56
2024-03-07T08:50:38.012Z,67.67
2024-03-07T08:53:07.643Z,66.67
2024-03-07T08:55:36.733Z,67.32
2024-03-07T08:58:06.706Z,66.36
2024-03-07T09:00:38.365Z,65.23
2024-03-07T09:03:07.467Z,67.06
2024-03-07T09:05:35.814Z,65.67
2024-03-07T09:08:04.323Z,65.72
2024-03-07T09:10:32.429Z,64.47
2024-03-07T09:13:00.602Z,64.00
2024-03-07T09:15:28.843Z,64.03
2024-03-07T09:17:56.901Z,62.62
2024-03-07T09:20:25.768Z,62.19
2024-03-07T09:22:55.087Z,61.00
2024-03-07T09:25:24.128Z,60.60
2024-03-07T09:27:52.119Z,62.95
2024-03-07T09:30:21.785Z,62.88
2024-03-07T09:32:49.694Z,62.29
2024-03-07T09:35:17.852Z,61.47
2024-03-07T09:37:45.997Z,57.33
2024-03-07T09:40:14.999Z,58.86
2024-03-07T09:42:48.331Z,56.93
2024-03-07T09:45:19.695Z,58.38
2024-03-07T09:47:52.471Z,59.22
2024-03-07T09:50:25.524Z,58.99
2024-03-07T09:52:55.443Z,57.99
2024-03-07T09:55:27.634Z,57.47
2024-03-07T09:58:00.432Z,57.32
2024-03-07T10:00:30.371Z,56.35
2024-03-07T10:03:10.978Z,57.07
2024-03-07T10:05:40.422Z,57.35
2024-03-07T10:08:09.142Z,56.86
2024-03-07T10:10:37.895Z,56.13
2024-03-07T10:13:06.690Z,57.73
2024-03-07T10:15:34.882Z,56.17
2024-03-07T10:18:03.659Z,55.13
2024-03-07T10:20:32.022Z,55.24
2024-03-07T10:23:01.816Z,54.82
2024-03-07T10:25:30.583Z,54.43
2024-03-07T10:28:00.702Z,54.52
2024-03-07T10:30:29.461Z,52.74
2024-03-07T10:33:02.656Z,54.50
2024-03-07T10:35:32.540Z,54.71
2024-03-07T10:38:01.259Z,53.32
2024-03-07T10:40:29.280Z,54.11
2024-03-07T10:42:59.320Z,54.30
2024-03-07T10:45:30.814Z,54.08
2024-03-07T10:48:02.001Z,54.53
2024-03-07T10:50:50.123Z,53.12
2024-03-07T10:53:55.974Z,53.02
2024-03-07T10:56:47.709Z,52.50
2024-03-07T10:59:21.209Z,53.07
2024-03-07T11:01:57.562Z,52.16
2024-03-07T11:04:27.032Z,52.73
2024-03-07T11:06:56.733Z,53.26
2024-03-07T11:09:24.973Z,52.32
2024-03-07T11:11:53.807Z,52.67
2024-03-07T11:14:22.658Z,52.25
2024-03-07T11:16:53.009Z,53.97
2024-03-07T11:19:31.651Z,53.08
2024-03-07T11:22:00.021Z,52.20
2024-03-07T11:24:32.258Z,51.89
2024-03-07T11:27:05.380Z,52.18
2024-03-07T11:29:48.889Z,51.33
2024-03-07T11:32:17.343Z,51.33
2024-03-07T11:34:50.704Z,52.46
2024-03-07T11:37:48.853Z,51.74
2024-03-07T11:40:25.468Z,51.31
2024-03-07T11:42:55.584Z,51.56
2024-03-07T11:45:26.697Z,51.44
2024-03-07T11:48:13.080Z,51.34
2024-03-07T11:50:42.306Z,50.62
2024-03-07T11:53:11.245Z,50.94
2024-03-07T11:55:46.859Z,51.66
2024-03-07T11:58:18.043Z,51.37
2024-03-07T12:00:51.673Z,51.97
2024-03-07T12:03:22.311Z,51.95
2024-03-07T12:05:52.003Z,51.45
2024-03-07T12:08:23.479Z,52.09
2024-03-07T12:10:53.433Z,51.52
2024-03-07T12:13:21.566Z,51.78
2024-03-07T12:15:51.726Z,52.65
2024-03-07T12:18:21.093Z,52.20
2024-03-07T12:20:51.798Z,52.16
2024-03-07T12:23:22.830Z,51.57
2024-03-07T12:26:05.732Z,50.84
2024-03-07T12:28:34.475Z,51.97
2024-03-07T12:31:04.668Z,52.55
2024-03-07T12:33:35.900Z,51.80
2024-03-07T12:36:08.274Z,52.09
2024-03-07T12:38:39.025Z,52.87
2024-03-07T12:41:11.336Z,52.11
2024-03-07T12:43:39.501Z,52.33
2024-03-07T12:46:09.157Z,52.34
2024-03-07T12:48:38.991Z,52.32
2024-03-07T12:51:07.150Z,53.11
2024-03-07T12:53:35.707Z,53.35
2024-03-07T12:56:10.493Z,53.25
2024-03-07T12:58:38.360Z,52.72
2024-03-07T13:01:06.176Z,53.79
2024-03-07T13:03:35.984Z,53.24
2024-03-07T13:06:05.421Z,52.26
2024-03-07T13:08:33.789Z,52.38
2024-03-07T13:11:02.603Z,52.83
2024-03-07T13:13:33.541Z,53.26
2024-03-07T13:16:01.510Z,53.62
2024-03-07T13:18:31.722Z,53.88
2024-03-07T13:20:59.828Z,54.23
2024-03-07T13:23:28.843Z,54.14
2024-03-07T13:25:57.151Z,53.16
2024-03-07T13:28:28.433Z,53.41
2024-03-07T13:30:56.730Z,53.39
2024-03-07T13:33:25.229Z,54.01
2024-03-07T13:35:54.637Z,53.64
2024-03-07T13:38:23.254Z,53.71
2024-03-07T13:40:51.409Z,54.05
2024-03-07T13:43:19.613Z,54.00
2024-03-07T13:45:48.723Z,54.28
2024-03-07T13:48:17.996Z,54.15
2024-03-07T13:50:55.337Z,53.69
2024-03-07T13:53:21.682Z,53.98
2024-03-07T13:56:17.640Z,54.17
2024-03-07T13:59:03.720Z,54.11
2024-03-07T14:01:44.567Z,54.00
2024-03-07T14:04:28.436Z,54.00
2024-03-07T14:07:35.281Z,54.01
2024-03-07T14:10:36.614Z,54.28
2024-03-07T14:13:38.659Z,54.62
2024-03-07T14:16:43.876Z,54.98
2024-03-07T14:19:42.507Z,54.73
2024-03-07T14:22:26.340Z,55.33
2024-03-07T14:25:24.132Z,54.93
2024-03-07T14:28:20.517Z,55.18
2024-03-07T14:30:57.016Z,54.17
2024-03-07T14:33:33.837Z,54.15
2024-03-07T14:36:11.131Z,53.67
2024-03-07T14:38:58.382Z,53.59
2024-03-07T14:41:59.173Z,54.01
2024-03-07T14:44:28.895Z,54.16
2024-03-07T14:47:06.634Z,54.02
2024-03-07T14:49:36.869Z,54.77
2024-03-07T14:52:08.396Z,54.63
2024-03-07T14:54:36.460Z,55.15
2024-03-07T14:57:06.131Z,54.38
2024-03-07T14:59:34.340Z,54.52
2024-03-07T15:02:03.890Z,54.11
2024-03-07T15:04:33.959Z,54.26
2024-03-07T15:07:03.616Z,54.45
2024-03-07T15:09:33.723Z,54.19
2024-03-07T15:12:01.772Z,53.82
2024-03-07T15:14:37.480Z,54.19
2024-03-07T15:17:00.123Z,53.82
2024-03-07T15:19:29.003Z,54.14
2024-03-07T15:21:57.147Z,54.08
2024-03-07T15:24:25.209Z,54.54
2024-03-07T15:26:53.033Z,54.63
2024-03-07T15:29:22.782Z,54.40
2024-03-07T15:31:50.873Z,55.06
2024-03-07T15:34:19.642Z,55.13
2024-03-07T15:36:47.768Z,55.10
2024-03-07T15:39:23.609Z,55.44
2024-03-07T15:41:51.532Z,55.55
2024-03-07T15:44:20.569Z,55.57
2024-03-07T15:46:49.430Z,55.62
2024-03-07T15:49:17.897Z,55.66
2024-03-07T15:51:47.160Z,55.72
2024-03-07T15:54:17.102Z,55.83
2024-03-07T15:56:45.829Z,55.65
2024-03-07T15:59:13.959Z,55.62
2024-03-07T16:01:45.075Z,55.59
2024-03-07T16:04:12.976Z,55.58
2024-03-07T16:06:46.323Z,55.07
2024-03-07T16:09:16.200Z,55.36
2024-03-07T16:11:45.238Z,55.64
2024-03-07T16:14:13.226Z,56.09
2024-03-07T16:16:43.263Z,55.98
2024-03-07T16:19:11.150Z,56.11
2024-03-07T16:21:39.348Z,56.46
2024-03-07T16:24:08.955Z,56.27
2024-03-07T16:26:37.459Z,56.42
2024-03-07T16:29:05.513Z,56.62
2024-03-07T16:31:33.562Z,56.56
2024-03-07T16:34:01.795Z,56.49
2024-03-07T16:36:29.683Z,56.84
2024-03-07T16:38:57.844Z,56.92
2024-03-07T16:41:25.983Z,57.07
2024-03-07T16:43:53.897Z,56.87
2024-03-07T16:46:22.666Z,56.76
2024-03-07T16:48:50.598Z,56.89
2024-03-07T16:51:18.669Z,56.89
2024-03-07T16:53:46.653Z,56.99
2024-03-07T16:56:15.470Z,56.56
2024-03-07T16:58:44.694Z,57.22
2024-03-07T17:01:12.588Z,56.75
2024-03-07T17:03:40.537Z,56.99
2024-03-07T17:06:10.384Z,57.09
2024-03-07T17:08:38.541Z,57.24
2024-03-07T17:11:07.194Z,57.26
2024-03-07T17:13:37.227Z,57.31
2024-03-07T17:16:05.801Z,57.77
2024-03-07T17:18:35.293Z,57.66
2024-03-07T17:21:03.953Z,57.94
2024-03-07T17:23:32.951Z,58.06
2024-03-07T17:26:00.788Z,58.66
2024-03-07T17:28:29.851Z,58.53
2024-03-07T17:30:57.772Z,58.36
2024-03-07T17:33:26.583Z,58.76
2024-03-07T17:35:54.597Z,58.19
2024-03-07T17:38:22.634Z,57.58
2024-03-07T17:40:50.688Z,58.07
2024-03-07T17:43:19.455Z,57.98
2024-03-07T17:45:49.979Z,57.78
2024-03-07T17:48:18.029Z,58.07
2024-03-07T17:50:46.222Z,58.21
2024-03-07T17:53:14.470Z,58.39
2024-03-07T17:55:44.158Z,58.29
2024-03-07T17:58:13.820Z,58.18
2024-03-07T18:00:42.839Z,58.16
2024-03-07T18:03:10.710Z,58.14
2024-03-07T18:05:52.021Z,58.26
2024-03-07T18:08:34.741Z,58.17
2024-03-07T18:10:51.091Z,58.22
2024-03-07T18:13:22.071Z,57.91
2024-03-07T18:15:50.545Z,57.98
2024-03-07T18:18:19.303Z,58.15
2024-03-07T18:20:47.800Z,58.21
2024-03-07T18:23:16.804Z,58.33
2024-03-07T18:25:45.811Z,58.46
2024-03-07T18:28:16.190Z,58.60
2024-03-07T18:30:44.346Z,58.40
2024-03-07T18:33:14.010Z,58.46
2024-03-07T18:35:44.254Z,58.71
2024-03-07T18:38:13.984Z,58.63
2024-03-07T18:40:42.206Z,58.90
2024-03-07T18:43:12.494Z,58.42
2024-03-07T18:45:42.810Z,58.62
2024-03-07T18:48:12.837Z,58.67
2024-03-07T18:50:42.959Z,59.20
2024-03-07T18:53:11.404Z,59.34
2024-03-07T18:55:40.600Z,59.74
2024-03-07T18:58:10.197Z,59.66
2024-03-07T19:00:38.697Z,59.91
2024-03-07T19:03:11.049Z,59.95
2024-03-07T19:05:41.937Z,60.08
2024-03-07T19:08:20.516Z,60.40
2024-03-07T19:10:51.706Z,60.19
2024-03-07T19:13:20.572Z,60.40
2024-03-07T19:15:52.687Z,60.41
2024-03-07T19:18:22.833Z,60.42
2024-03-07T19:20:53.830Z,60.45
2024-03-07T19:23:22.509Z,60.33
2024-03-07T19:25:53.233Z,60.37
2024-03-07T19:28:21.459Z,60.22
2024-03-07T19:30:52.779Z,60.35
2024-03-07T19:33:23.596Z,60.45
2024-03-07T19:35:57.617Z,60.36
2024-03-07T19:38:26.617Z,60.37
2024-03-07T19:40:55.318Z,60.36
2024-03-07T19:43:26.315Z,60.46
2024-03-07T19:45:56.130Z,60.54
2024-03-07T19:48:25.088Z,60.00
2024-03-07T19:50:54.324Z,60.26
2024-03-07T19:53:24.410Z,60.43
2024-03-07T19:55:52.594Z,60.48
2024-03-07T19:58:22.823Z,60.42
2024-03-07T20:00:50.958Z,60.16
2024-03-07T20:03:23.236Z,59.88
2024-03-07T20:05:55.275Z,59.75
2024-03-07T20:08:25.476Z,59.52
2024-03-07T20:10:53.633Z,59.29
2024-03-07T20:13:21.820Z,59.26
2024-03-07T20:15:49.688Z,59.43
2024-03-07T20:18:17.889Z,59.42
2024-03-07T20:20:46.629Z,59.54
2024-03-07T20:23:17.431Z,59.55
2024-03-07T20:25:46.949Z,59.60
2024-03-07T20:28:15.815Z,59.77
2024-03-07T20:30:45.775Z,60.00
2024-03-07T20:33:14.178Z,60.47
2024-03-07T20:35:42.987Z,60.87
2024-03-07T20:38:13.859Z,60.96
2024-03-07T20:40:42.395Z,61.33
2024-03-07T20:43:11.255Z,61.61
2024-03-07T20:45:39.317Z,62.01
2024-03-07T20:48:10.126Z,62.21
2024-03-07T20:50:40.221Z,62.36
2024-03-07T20:53:10.023Z,62.46
2024-03-07T20:55:39.765Z,62.47
2024-03-07T20:58:09.409Z,62.87
2024-03-07T21:00:38.655Z,62.83
2024-03-07T21:03:09.786Z,62.94
2024-03-07T21:05:39.806Z,62.99
2024-03-07T21:08:09.789Z,63.25
2024-03-07T21:10:39.527Z,63.22
2024-03-07T21:13:07.850Z,63.30
2024-03-07T21:15:35.922Z,63.32
2024-03-07T21:18:07.356Z,63.57
2024-03-07T21:20:36.578Z,63.46
2024-03-07T21:23:07.667Z,63.59
2024-03-07T21:25:36.106Z,63.85
2024-03-07T21:28:07.490Z,63.88
2024-03-07T21:30:36.819Z,64.05
2024-03-07T21:33:05.433Z,64.04
2024-03-07T21:35:37.234Z,64.05
2024-03-07T21:38:07.434Z,63.96
2024-03-07T21:40:35.761Z,64.01
2024-03-07T21:43:05.875Z,64.06
2024-03-07T21:45:35.596Z,64.30
2024-03-07T21:48:07.067Z,64.21
2024-03-07T21:50:36.297Z,64.34
2024-03-07T21:53:05.167Z,64.72
2024-03-07T21:55:33.095Z,65.56
2024-03-07T21:58:01.005Z,65.16
2024-03-07T22:00:30.535Z,64.88
2024-03-07T22:03:01.560Z,64.61
2024-03-07T22:05:30.683Z,64.48
2024-03-07T22:07:59.729Z,64.61
2024-03-07T22:10:29.710Z,64.19
2024-03-07T22:12:57.796Z,64.09
2024-03-07T22:15:26.955Z,63.48
2024-03-07T22:17:55.437Z,62.82
2024-03-07T22:20:25.345Z,63.19
2024-03-07T22:22:54.287Z,63.16
2024-03-07T22:25:25.391Z,63.22
2024-03-07T22:27:54.720Z,63.38
2024-03-07T22:30:24.388Z,63.58
2024-03-07T22:32:54.553Z,63.69
2024-03-07T22:35:22.809Z,63.66
2024-03-07T22:37:53.339Z,63.86
2024-03-07T22:40:25.732Z,63.99
2024-03-07T22:42:54.353Z,64.10
2024-03-07T22:45:23.434Z,64.10
2024-03-07T22:47:53.011Z,64.15
2024-03-07T22:50:28.290Z,64.20
2024-03-07T22:52:53.405Z,64.63
2024-03-07T22:55:22.885Z,64.60
2024-03-07T22:57:51.232Z,64.66
2024-03-07T23:00:19.633Z,64.50
2024-03-07T23:02:47.818Z,64.63
2024-03-07T23:05:16.867Z,64.48
2024-03-07T23:07:46.576Z,64.60
2024-03-07T23:10:19.657Z,64.88
2024-03-07T23:12:49.576Z,64.52
2024-03-07T23:15:17.685Z,64.57
2024-03-07T23:17:46.537Z,64.56
2024-03-07T23:20:16.763Z,64.68
2024-03-07T23:22:44.705Z,64.66
2024-03-07T23:25:14.085Z,64.45
2024-03-07T23:27:43.636Z,64.45
2024-03-07T23:30:14.978Z,64.11
2024-03-07T23:32:43.351Z,64.12
2024-03-07T23:35:13.250Z,64.02
2024-03-07T23:37:46.891Z,63.55
2024-03-07T23:40:15.460Z,63.48
2024-03-07T23:42:46.821Z,63.11
2024-03-07T23:45:15.744Z,63.15
2024-03-07T23:47:47.093Z,63.24
2024-03-07T23:50:15.190Z,63.16
2024-03-07T23:52:45.466Z,63.29
2024-03-07T23:55:18.626Z,63.25
2024-03-07T23:57:47.475Z,63.34
